Time;durP1;ratioP1;P1;durP2;ratioP2;P2;SDS_P1;SDS_P2;PMS_P1;PMS_P2;Temp;Humidity;BMP_temperature;BMP_pressure;BME280_temperature;BME280_humidity;BME280_pressure;Samples;Min_cycle;Max_cycle;Signal;HPM_P1;HPM_P2
2021/09/12 00:00:12;;;;;;;13.25;10.55;;;;;;;13.30;100.00;96410.59;1023542;29;20539;-51
2021/09/12 00:00:43;;;;;;;12.57;11.00;;;;;;;13.28;100.00;96407.25;1019533;29;20042;-49
2021/09/12 00:01:13;;;;;;;13.88;10.88;;;;;;;13.24;100.00;96406.63;1019742;29;20012;-50
2021/09/12 00:01:44;;;;;;;12.00;10.32;;;;;;;13.22;100.00;96406.75;1023571;28;20106;-50
2021/09/12 00:02:15;;;;;;;14.25;10.50;;;;;;;13.23;100.00;96407.56;1023923;28;20090;-52
2021/09/12 00:02:45;;;;;;;15.10;10.95;;;;;;;13.23;100.00;96410.19;1035604;28;20093;-49
2021/09/12 00:03:16;;;;;;;12.23;10.55;;;;;;;13.26;100.00;96412.63;1035339;28;20014;-48
2021/09/12 00:03:46;;;;;;;13.57;10.23;;;;;;;13.27;100.00;96409.03;1035696;28;20069;-50
2021/09/12 00:04:17;;;;;;;12.50;10.68;;;;;;;13.27;100.00;96405.56;1035638;28;20494;-52
2021/09/12 00:04:48;;;;;;;13.05;10.80;;;;;;;13.23;100.00;96410.19;1035690;28;20022;-51
2021/09/12 00:05:18;;;;;;;13.35;11.35;;;;;;;13.23;100.00;96405.78;1031278;28;20034;-50
2021/09/12 00:05:49;;;;;;;16.80;10.45;;;;;;;13.22;100.00;96406.75;1027501;28;20437;-50
2021/09/12 00:06:19;;;;;;;16.42;11.35;;;;;;;13.22;100.00;96406.75;1015525;29;20016;-51
2021/09/12 00:06:50;;;;;;;12.57;10.40;;;;;;;13.22;100.00;96408.53;1019739;29;20028;-50
2021/09/12 00:07:21;;;;;;;12.30;10.70;;;;;;;13.22;100.00;96403.28;1023461;29;20098;-50
2021/09/12 00:07:52;;;;;;;13.63;11.05;;;;;;;13.23;100.00;96405.78;1023908;28;20015;-49
2021/09/12 00:08:22;;;;;;;12.85;9.98;;;;;;;13.26;100.00;96406.53;1027368;28;20499;-49
2021/09/12 00:08:53;;;;;;;12.02;9.52;;;;;;;13.23;100.00;96403.16;1019686;29;20110;-49
2021/09/12 00:09:24;;;;;;;12.00;10.73;;;;;;;13.24;100.00;96398.72;1019616;29;20027;-50
2021/09/12 00:09:54;;;;;;;12.05;10.02;;;;;;;13.26;100.00;96403.88;1019940;28;20051;-51
2021/09/12 00:10:26;;;;;;;12.38;9.93;;;;;;;13.24;100.00;96401.38;1027653;28;20540;-50
2021/09/12 00:10:57;;;;;;;13.30;10.60;;;;;;;13.24;100.00;96404.00;1031831;28;20022;-51
2021/09/12 00:11:27;;;;;;;12.02;10.32;;;;;;;13.25;100.00;96400.44;1035487;28;20026;-50
2021/09/12 00:11:58;;;;;;;14.98;10.80;;;;;;;13.24;100.00;96406.63;1035678;28;20018;-51
2021/09/12 00:12:28;;;;;;;12.32;10.45;;;;;;;13.28;100.00;96399.34;1035758;28;20018;-50
2021/09/12 00:12:59;;;;;;;12.95;10.40;;;;;;;13.30;100.00;96400.06;1035339;28;20489;-51
2021/09/12 00:13:30;;;;;;;12.27;9.68;;;;;;;13.31;100.00;96400.00;1031414;28;20101;-54
2021/09/12 00:14:00;;;;;;;11.20;9.70;;;;;;;13.31;100.00;96404.44;1023482;29;20051;-53
2021/09/12 00:14:31;;;;;;;12.68;9.95;;;;;;;13.30;100.00;96393.03;1023538;28;20031;-47
2021/09/12 00:15:01;;;;;;;14.65;10.15;;;;;;;13.32;100.00;96396.41;1027473;28;20050;-50
2021/09/12 00:15:32;;;;;;;13.73;9.98;;;;;;;13.33;100.00;96397.25;1023639;28;20103;-50
2021/09/12 00:16:03;;;;;;;11.75;10.02;;;;;;;13.34;100.00;96394.47;1027644;28;20027;-51
2021/09/12 00:16:33;;;;;;;13.77;10.30;;;;;;;13.35;100.00;96397.97;1031737;28;20049;-51
2021/09/12 00:17:04;;;;;;;12.50;9.77;;;;;;;13.34;100.00;96398.91;1035660;28;20478;-51
2021/09/12 00:17:35;;;;;;;11.25;9.25;;;;;;;13.34;100.00;96397.13;1035661;28;20018;-50
2021/09/12 00:18:05;;;;;;;10.70;8.93;;;;;;;13.33;100.00;96392.81;1031519;28;20061;-50
2021/09/12 00:18:36;;;;;;;13.77;10.13;;;;;;;13.35;100.00;96392.72;1031524;28;20470;-50
2021/09/12 00:19:06;;;;;;;10.73;8.80;;;;;;;13.35;100.00;96393.53;1027458;28;20590;-48
2021/09/12 00:19:37;;;;;;;12.38;10.10;;;;;;;13.38;100.00;96398.59;1024225;28;20031;-50
2021/09/12 00:20:08;;;;;;;14.13;9.30;;;;;;;13.38;100.00;96393.34;1024323;28;20118;-52
2021/09/12 00:20:39;;;;;;;12.55;9.55;;;;;;;13.36;100.00;96386.47;1028525;28;20022;-51
2021/09/12 00:21:09;;;;;;;11.30;9.68;;;;;;;13.38;100.00;96393.34;1032630;28;20109;-50
2021/09/12 00:21:40;;;;;;;12.20;10.10;;;;;;;13.40;100.00;96391.41;1028308;28;20134;-50
2021/09/12 00:22:10;;;;;;;12.93;9.68;;;;;;;13.41;100.00;96387.81;1032312;28;20614;-51
2021/09/12 00:22:41;;;;;;;12.35;10.15;;;;;;;13.44;100.00;96393.81;1032353;28;20453;-50
2021/09/12 00:23:11;;;;;;;13.55;9.90;;;;;;;13.44;100.00;96389.41;1028272;28;20023;-51
2021/09/12 00:23:42;;;;;;;11.88;9.85;;;;;;;13.46;100.00;96390.13;1036232;28;20590;-50
2021/09/12 00:24:13;;;;;;;11.60;9.85;;;;;;;13.45;100.00;96393.69;1028111;28;20022;-50
2021/09/12 00:24:44;;;;;;;17.73;9.27;;;;;;;13.46;100.00;96392.75;1028200;28;20098;-49
2021/09/12 00:25:14;;;;;;;12.52;9.85;;;;;;;13.46;100.00;96389.25;1024132;28;20082;-51
2021/09/12 00:25:45;;;;;;;11.90;10.10;;;;;;;13.47;100.00;96388.31;1024519;28;20513;-51
2021/09/12 00:26:16;;;;;;;11.25;9.27;;;;;;;13.46;100.00;96378.72;1028098;28;20046;-52
2021/09/12 00:26:46;;;;;;;12.77;9.95;;;;;;;13.45;100.00;96395.50;1024362;28;20109;-51
2021/09/12 00:27:17;;;;;;;14.60;10.40;;;;;;;13.45;100.00;96390.22;1028206;28;20019;-51
2021/09/12 00:27:48;;;;;;;10.45;9.15;;;;;;;13.46;100.00;96384.00;1024405;28;20097;-51
2021/09/12 00:28:18;;;;;;;11.38;9.48;;;;;;;13.47;100.00;96385.69;1032064;28;20022;-50
2021/09/12 00:28:49;;;;;;;13.10;10.05;;;;;;;13.47;100.00;96377.78;1028049;28;20108;-50
2021/09/12 00:29:20;;;;;;;11.75;9.57;;;;;;;13.46;100.00;96381.38;1020152;29;20031;-48
2021/09/12 00:29:51;;;;;;;12.18;10.25;;;;;;;13.45;100.00;96382.34;1024153;28;20027;-51
2021/09/12 00:30:21;;;;;;;12.40;10.32;;;;;;;13.46;100.00;96386.63;1036039;28;20372;-50
2021/09/12 00:30:52;;;;;;;13.45;10.50;;;;;;;13.45;100.00;96380.53;1028263;28;20030;-51
2021/09/12 00:31:22;;;;;;;13.45;10.70;;;;;;;13.46;100.00;96381.38;1028495;28;20120;-51
2021/09/12 00:31:53;;;;;;;11.63;9.95;;;;;;;13.49;100.00;96383.78;1028272;28;20058;-50
2021/09/12 00:32:24;;;;;;;12.40;10.02;;;;;;;13.50;100.00;96385.47;1024209;28;20031;-50
2021/09/12 00:32:55;;;;;;;12.60;9.88;;;;;;;13.51;100.00;96380.06;1024053;29;20493;-51
2021/09/12 00:33:27;;;;;;;10.52;9.20;;;;;;;13.50;100.00;96374.94;1024372;28;20079;-50
2021/09/12 00:33:58;;;;;;;12.52;9.60;;;;;;;13.48;100.00;96377.69;1024078;29;20034;-51
2021/09/12 00:34:28;;;;;;;13.85;10.88;;;;;;;13.47;100.00;96375.16;1016160;29;20027;-51
2021/09/12 00:34:59;;;;;;;12.60;10.73;;;;;;;13.50;100.00;96378.41;1017142;29;20027;-51
2021/09/12 00:35:30;;;;;;;14.02;10.90;;;;;;;13.50;100.00;96377.56;1020300;29;20020;-48
2021/09/12 00:36:01;;;;;;;10.57;9.48;;;;;;;13.52;100.00;96375.66;1020798;28;20051;-51
2021/09/12 00:36:31;;;;;;;13.73;10.45;;;;;;;13.51;100.00;96371.34;1024202;29;20110;-50
2021/09/12 00:37:02;;;;;;;15.20;10.32;;;;;;;13.52;100.00;96381.75;1020327;29;20024;-50
2021/09/12 00:37:32;;;;;;;13.10;10.52;;;;;;;13.52;100.00;96383.56;1020431;29;20436;-50
2021/09/12 00:38:03;;;;;;;14.73;10.73;;;;;;;13.54;100.00;96377.22;1032141;28;20101;-51
2021/09/12 00:38:33;;;;;;;13.13;10.23;;;;;;;13.54;100.00;96376.38;1027884;28;20517;-50
2021/09/12 00:39:04;;;;;;;12.18;10.30;;;;;;;13.56;100.00;96380.56;1020375;28;20451;-50
2021/09/12 00:39:35;;;;;;;12.63;10.52;;;;;;;13.56;100.00;96372.66;1024513;28;20113;-50
2021/09/12 00:40:06;;;;;;;13.30;11.00;;;;;;;13.58;100.00;96372.56;1024110;28;20123;-51
2021/09/12 00:40:37;;;;;;;12.23;10.23;;;;;;;13.58;100.00;96380.47;1020261;29;20027;-51
2021/09/12 00:41:07;;;;;;;13.45;10.63;;;;;;;13.59;100.00;96376.88;1020238;29;20020;-50
2021/09/12 00:41:39;;;;;;;13.57;10.10;;;;;;;13.60;100.00;96379.38;1024579;28;20023;-49
2021/09/12 00:42:10;;;;;;;10.82;9.70;;;;;;;13.60;100.00;96374.09;1032213;28;20019;-51
2021/09/12 00:42:40;;;;;;;12.75;10.60;;;;;;;13.58;100.00;96375.19;1032038;28;20057;-50
2021/09/12 00:43:11;;;;;;;13.00;10.50;;;;;;;13.58;100.00;96372.56;1032203;28;20026;-51
2021/09/12 00:43:42;;;;;;;15.68;11.20;;;;;;;13.57;100.00;96363.81;1028204;28;20035;-50
2021/09/12 00:44:12;;;;;;;14.63;10.88;;;;;;;13.61;100.00;96367.91;1032336;28;20500;-51
2021/09/12 00:44:43;;;;;;;13.68;11.48;;;;;;;13.58;100.00;96369.94;1032088;28;20504;-51
2021/09/12 00:45:14;;;;;;;14.60;11.02;;;;;;;13.56;100.00;96367.41;1023987;29;20029;-50
2021/09/12 00:45:55;;;;;;;13.20;10.73;;;;;;;13.55;100.00;96363.09;1024250;29;20023;-50
2021/09/12 00:46:26;;;;;;;15.40;10.82;;;;;;;13.57;100.00;96366.47;1021770;29;20028;-51
2021/09/12 00:46:57;;;;;;;13.70;10.20;;;;;;;13.57;100.00;96366.47;1024014;29;20717;-50
2021/09/12 00:47:27;;;;;;;11.10;9.82;;;;;;;13.61;100.00;96364.44;1028122;28;20081;-50
2021/09/12 00:47:58;;;;;;;14.20;10.15;;;;;;;13.57;100.00;96368.22;1036203;28;20018;-50
2021/09/12 00:48:29;;;;;;;12.50;10.57;;;;;;;13.60;100.00;96360.13;1040302;28;20021;-50
2021/09/12 00:48:59;;;;;;;12.27;10.57;;;;;;;13.61;100.00;96367.06;1031895;28;20401;-51
2021/09/12 00:49:30;;;;;;;15.75;10.43;;;;;;;13.60;100.00;96362.75;1024117;28;20461;-49
2021/09/12 00:50:01;;;;;;;16.45;10.55;;;;;;;13.60;100.00;96363.56;1020297;29;20071;-50
2021/09/12 00:50:31;;;;;;;12.38;10.60;;;;;;;13.58;100.00;96356.75;1020337;29;20087;-49
2021/09/12 00:51:03;;;;;;;13.00;10.13;;;;;;;13.59;100.00;96366.34;1024038;29;20592;-51
2021/09/12 00:51:35;;;;;;;11.45;9.57;;;;;;;13.60;100.00;96363.56;1024085;29;20019;-51
2021/09/12 00:52:07;;;;;;;12.55;10.13;;;;;;;13.60;100.00;96362.75;1024101;29;20479;-51
2021/09/12 00:52:39;;;;;;;12.90;10.90;;;;;;;13.60;100.00;96362.75;1024126;29;20114;-48
2021/09/12 00:53:10;;;;;;;11.63;9.70;;;;;;;13.60;100.00;96368.00;1020515;29;20470;-50
2021/09/12 00:53:41;;;;;;;12.30;10.60;;;;;;;13.58;100.00;96364.66;1020887;29;20107;-51
2021/09/12 00:54:11;;;;;;;15.18;10.50;;;;;;;13.57;100.00;96361.19;1020738;29;20078;-52
2021/09/12 00:54:42;;;;;;;15.75;10.05;;;;;;;13.58;100.00;96367.28;1020477;28;20398;-50
2021/09/12 00:55:13;;;;;;;13.45;10.52;;;;;;;13.58;100.00;96365.50;1016226;29;20075;-50
2021/09/12 00:55:44;;;;;;;14.52;11.15;;;;;;;13.58;100.00;96362.03;1024148;29;20075;-51
2021/09/12 00:56:15;;;;;;;13.68;11.20;;;;;;;13.61;100.00;96370.53;1024610;28;20114;-50
2021/09/12 00:56:46;;;;;;;16.50;11.38;;;;;;;13.62;100.00;96366.09;1028521;28;20030;-51
2021/09/12 00:57:17;;;;;;;13.90;10.43;;;;;;;13.65;100.00;96372.94;1024604;28;20023;-50
2021/09/12 00:57:47;;;;;;;14.70;10.80;;;;;;;13.59;100.00;96364.53;1024198;28;20055;-50
2021/09/12 00:58:18;;;;;;;16.88;11.60;;;;;;;13.59;100.00;96361.09;1020143;29;20379;-50
2021/09/12 00:58:49;;;;;;;14.63;11.65;;;;;;;13.61;100.00;96367.06;1016230;29;20024;-50
2021/09/12 00:59:20;;;;;;;14.10;11.07;;;;;;;13.65;100.00;96372.94;1031822;28;20407;-49
2021/09/12 00:59:51;;;;;;;17.48;12.73;;;;;;;13.65;100.00;96368.50;1028175;28;20123;-51
2021/09/12 01:00:21;;;;;;;13.82;10.48;;;;;;;13.64;100.00;96366.81;1024097;28;20024;-52
2021/09/12 01:00:52;;;;;;;13.40;10.05;;;;;;;13.65;100.00;96370.31;1024545;28;20106;-49
2021/09/12 01:01:25;;;;;;;12.68;10.75;;;;;;;13.64;100.00;96364.19;1024191;28;20388;-50
2021/09/12 01:01:56;;;;;;;13.35;11.00;;;;;;;13.62;100.00;96363.47;1028704;28;20022;-51
2021/09/12 01:02:27;;;;;;;16.08;11.43;;;;;;;13.61;100.00;96367.06;1024001;28;20461;-51
2021/09/12 01:02:58;;;;;;;16.02;11.23;;;;;;;13.61;100.00;96365.28;1020381;29;20058;-50
2021/09/12 01:03:28;;;;;;;15.13;10.90;;;;;;;13.61;100.00;96365.28;1023920;29;20454;-50
2021/09/12 01:04:00;;;;;;;14.40;11.23;;;;;;;13.62;100.00;96366.09;1028011;28;20027;-51
2021/09/12 01:04:32;;;;;;;12.98;10.77;;;;;;;13.64;100.00;96368.63;1028350;28;20050;-48
2021/09/12 01:05:05;;;;;;;21.55;12.07;;;;;;;13.64;100.00;96372.09;1032474;28;20022;-49
2021/09/12 01:05:36;;;;;;;16.42;11.98;;;;;;;13.62;100.00;96366.09;1032760;28;20026;-51
2021/09/12 01:06:07;;;;;;;15.27;11.50;;;;;;;13.65;100.00;96372.94;1031983;28;20026;-50
2021/09/12 01:06:37;;;;;;;14.30;11.05;;;;;;;13.66;100.00;96362.28;1032220;28;20062;-49
2021/09/12 01:07:08;;;;;;;15.73;11.45;;;;;;;13.67;100.00;96366.59;1028166;28;20473;-50
2021/09/12 01:07:40;;;;;;;16.15;11.50;;;;;;;13.67;100.00;96371.03;1028158;28;20093;-50
2021/09/12 01:08:10;;;;;;;13.38;10.95;;;;;;;13.68;100.00;96368.25;1032064;28;20029;-50
2021/09/12 01:08:41;;;;;;;14.05;11.38;;;;;;;13.68;100.00;96373.53;1036028;28;20105;-51
2021/09/12 01:09:12;;;;;;;14.05;11.57;;;;;;;13.69;100.00;96367.31;1027982;28;20509;-52
2021/09/12 01:09:43;;;;;;;12.63;10.25;;;;;;;13.69;100.00;96377.84;1024079;28;20062;-50
2021/09/12 01:10:13;;;;;;;14.65;10.55;;;;;;;13.70;100.00;96376.03;1028050;28;20025;-50
2021/09/12 01:10:45;;;;;;;14.95;11.02;;;;;;;13.70;100.00;96371.63;1028202;28;20102;-52
2021/09/12 01:11:15;;;;;;;19.65;11.70;;;;;;;13.71;100.00;96369.84;1020186;29;20080;-50
2021/09/12 01:11:46;;;;;;;14.55;11.35;;;;;;;13.71;100.00;96370.66;1024112;29;20079;-51
2021/09/12 01:12:17;;;;;;;13.70;10.85;;;;;;;13.72;100.00;96371.50;1024037;29;20026;-53
2021/09/12 01:12:47;;;;;;;13.40;11.07;;;;;;;13.72;100.00;96374.13;1023939;29;20027;-51
2021/09/12 01:13:18;;;;;;;15.68;11.57;;;;;;;13.69;100.00;96375.22;1020004;29;20023;-51
2021/09/12 01:13:49;;;;;;;13.32;10.82;;;;;;;13.70;100.00;96365.50;1019896;29;20018;-50
2021/09/12 01:14:24;;;;;;;11.98;10.32;;;;;;;13.70;100.00;96363.75;1019980;29;20398;-50
2021/09/12 01:14:55;;;;;;;14.48;10.52;;;;;;;13.71;100.00;96375.09;1020972;29;20107;-50
2021/09/12 01:15:27;;;;;;;14.15;11.30;;;;;;;13.68;100.00;96368.25;1021684;28;20036;-53
2021/09/12 01:15:57;;;;;;;16.85;11.80;;;;;;;13.64;100.00;96371.25;1029951;28;20021;-51
2021/09/12 01:16:28;;;;;;;14.05;11.10;;;;;;;13.67;100.00;96368.41;1032043;28;20454;-50
2021/09/12 01:16:59;;;;;;;15.30;10.63;;;;;;;13.65;100.00;96371.13;1032239;28;20018;-51
2021/09/12 01:17:29;;;;;;;13.43;10.65;;;;;;;13.66;100.00;96366.72;1020092;29;20063;-49
2021/09/12 01:18:00;;;;;;;13.07;10.85;;;;;;;13.65;100.00;96363.25;1020270;29;20088;-49
2021/09/12 01:18:31;;;;;;;20.92;11.18;;;;;;;13.63;100.00;96369.56;1016022;29;20111;-51
2021/09/12 01:19:01;;;;;;;13.88;11.32;;;;;;;13.58;100.00;96367.28;1020513;28;20016;-50
2021/09/12 01:19:34;;;;;;;15.05;11.65;;;;;;;13.61;100.00;96365.28;1028161;28;20477;-49
2021/09/12 01:20:05;;;;;;;13.35;11.25;;;;;;;13.61;100.00;96361.81;1024364;28;20019;-52
2021/09/12 01:20:35;;;;;;;15.52;11.25;;;;;;;13.63;100.00;96366.94;1020405;29;20040;-51
2021/09/12 01:21:15;;;;;;;14.52;11.13;;;;;;;13.67;100.00;96361.31;1015999;29;20020;-50
2021/09/12 01:21:45;;;;;;;11.75;10.05;;;;;;;13.67;100.00;96365.75;1016172;29;20115;-50
2021/09/12 01:22:16;;;;;;;13.82;10.30;;;;;;;13.68;100.00;96360.34;1019947;29;20027;-51
2021/09/12 01:22:47;;;;;;;15.55;10.60;;;;;;;13.70;100.00;96365.50;1019925;28;20548;-51
2021/09/12 01:23:17;;;;;;;11.88;9.90;;;;;;;13.72;100.00;96367.09;1023878;29;20019;-50
2021/09/12 01:23:48;;;;;;;13.82;10.35;;;;;;;13.66;100.00;96359.63;1024147;28;20445;-49
2021/09/12 01:24:19;;;;;;;10.75;9.43;;;;;;;13.67;100.00;96358.69;1028205;28;20019;-51
2021/09/12 01:24:50;;;;;;;13.20;10.35;;;;;;;13.61;100.00;96356.53;1020243;29;20398;-51
2021/09/12 01:25:20;;;;;;;17.45;10.68;;;;;;;13.65;100.00;96362.41;1023682;28;20026;-51
2021/09/12 01:25:55;;;;;;;13.73;10.88;;;;;;;13.62;100.00;96366.09;1024007;29;20394;-50
2021/09/12 01:26:27;;;;;;;11.77;9.68;;;;;;;13.67;100.00;96360.50;1024546;28;20042;-50
2021/09/12 01:26:57;;;;;;;12.88;10.50;;;;;;;13.64;100.00;96364.19;1031864;28;20018;-51
2021/09/12 01:27:28;;;;;;;16.13;12.02;;;;;;;13.62;100.00;96358.19;1027978;28;20042;-49
2021/09/12 01:27:59;;;;;;;14.27;10.65;;;;;;;13.58;100.00;96360.22;1020063;29;20040;-49
2021/09/12 01:28:29;;;;;;;15.05;10.43;;;;;;;13.57;100.00;96360.34;1027964;28;20010;-48
2021/09/12 01:29:00;;;;;;;15.98;11.65;;;;;;;13.59;100.00;96361.09;1035876;28;20030;-50
2021/09/12 01:29:31;;;;;;;13.23;10.40;;;;;;;13.58;100.00;96357.59;1031925;28;20113;-51
2021/09/12 01:30:02;;;;;;;14.15;10.90;;;;;;;13.63;100.00;96359.88;1024025;28;20035;-51
2021/09/12 01:30:33;;;;;;;13.80;10.10;;;;;;;13.66;100.00;96357.00;1023883;29;20106;-51
2021/09/12 01:31:04;;;;;;;16.52;11.65;;;;;;;13.70;100.00;96360.25;1023741;28;20481;-51
2021/09/12 01:31:35;;;;;;;13.85;10.75;;;;;;;13.72;100.00;96361.81;1020206;29;20580;-51
2021/09/12 01:32:06;;;;;;;15.02;10.85;;;;;;;13.69;100.00;96363.84;1020376;29;20028;-49
2021/09/12 01:32:37;;;;;;;19.65;11.68;;;;;;;13.66;100.00;96353.53;1020260;29;20083;-52
2021/09/12 01:33:07;;;;;;;12.48;10.50;;;;;;;13.67;100.00;96361.31;1019948;29;20071;-50
2021/09/12 01:33:38;;;;;;;14.63;10.70;;;;;;;13.68;100.00;96362.16;1021204;28;20517;-50
2021/09/12 01:34:09;;;;;;;12.20;10.10;;;;;;;13.70;100.00;96365.50;1024055;28;20572;-50
2021/09/12 01:34:39;;;;;;;14.10;10.93;;;;;;;13.69;100.00;96359.41;1020034;28;20020;-51
2021/09/12 01:35:10;;;;;;;14.80;11.10;;;;;;;13.69;100.00;96358.59;1019845;29;20110;-51
2021/09/12 01:35:40;;;;;;;17.75;10.68;;;;;;;13.70;100.00;96361.09;1020147;29;20213;-50
2021/09/12 01:36:11;;;;;;;12.38;10.15;;;;;;;13.70;100.00;96354.97;1020053;29;20032;-50
2021/09/12 01:36:42;;;;;;;14.15;9.45;;;;;;;13.67;100.00;96352.59;1020398;28;20099;-51
2021/09/12 01:37:12;;;;;;;12.10;9.73;;;;;;;13.67;100.00;96358.69;1027779;28;20027;-49
2021/09/12 01:37:43;;;;;;;14.55;11.05;;;;;;;13.68;100.00;96356.88;1028284;28;20040;-52
2021/09/12 01:38:14;;;;;;;15.60;9.98;;;;;;;13.73;100.00;96355.59;1027936;28;20097;-51
2021/09/12 01:38:44;;;;;;;13.75;9.82;;;;;;;13.73;100.00;96358.22;1028219;28;20030;-49
2021/09/12 01:39:15;;;;;;;12.95;10.65;;;;;;;13.74;100.00;96351.16;1027921;28;20023;-50
2021/09/12 01:39:45;;;;;;;14.50;10.60;;;;;;;13.75;100.00;96350.22;1020067;29;20401;-51
2021/09/12 01:40:16;;;;;;;12.07;10.00;;;;;;;13.76;100.00;96352.72;1023949;28;20034;-50
2021/09/12 01:40:47;;;;;;;14.25;10.00;;;;;;;13.75;100.00;96348.41;1027925;28;20029;-51
2021/09/12 01:41:17;;;;;;;13.45;10.63;;;;;;;13.72;100.00;96353.91;1032027;28;20161;-53
2021/09/12 01:41:48;;;;;;;13.73;10.52;;;;;;;13.77;100.00;96345.66;1032036;28;20022;-50
2021/09/12 01:42:18;;;;;;;12.63;9.98;;;;;;;13.80;100.00;96348.91;1036078;28;20018;-51
2021/09/12 01:42:49;;;;;;;15.35;9.30;;;;;;;13.82;100.00;96348.78;1031985;28;20022;-49
2021/09/12 01:43:20;;;;;;;12.50;10.10;;;;;;;13.82;100.00;96346.16;1031738;28;20026;-49
2021/09/12 01:43:55;;;;;;;16.42;10.70;;;;;;;13.77;100.00;96345.66;1032127;28;20105;-51
2021/09/12 01:44:25;;;;;;;13.30;10.02;;;;;;;13.75;100.00;96345.78;1027981;28;20097;-50
2021/09/12 01:44:56;;;;;;;13.52;10.32;;;;;;;13.77;100.00;96345.66;1023769;29;20051;-50
2021/09/12 01:45:27;;;;;;;12.40;11.00;;;;;;;13.72;100.00;96343.38;1019750;29;20036;-50
2021/09/12 01:45:57;;;;;;;14.98;10.57;;;;;;;13.71;100.00;96336.44;1027824;28;20081;-50
2021/09/12 01:46:29;;;;;;;16.92;11.25;;;;;;;13.69;100.00;96342.78;1031906;28;20046;-51
2021/09/12 01:46:59;;;;;;;12.93;10.50;;;;;;;13.77;100.00;96340.38;1032015;28;20018;-53
2021/09/12 01:47:30;;;;;;;12.35;10.32;;;;;;;13.73;100.00;96333.69;1027734;28;20030;-50
2021/09/12 01:48:00;;;;;;;13.30;10.70;;;;;;;13.70;100.00;96332.13;1024319;28;20032;-50
2021/09/12 01:48:31;;;;;;;12.20;10.52;;;;;;;13.74;100.00;96328.31;1032119;28;20105;-50
2021/09/12 01:49:04;;;;;;;10.63;9.40;;;;;;;13.82;100.00;96332.97;1023966;28;20027;-51
2021/09/12 01:49:35;;;;;;;13.13;10.55;;;;;;;13.85;100.00;96334.53;1028337;28;20022;-50
2021/09/12 01:50:06;;;;;;;15.50;10.23;;;;;;;13.77;100.00;96322.78;1032074;28;20015;-50
2021/09/12 01:50:37;;;;;;;11.13;9.25;;;;;;;13.78;100.00;96326.28;1029038;28;20463;-50
2021/09/12 01:51:07;;;;;;;11.20;9.70;;;;;;;13.77;100.00;96324.59;1028396;28;20026;-50
2021/09/12 01:51:38;;;;;;;12.30;10.20;;;;;;;13.72;100.00;96329.38;1023729;29;20023;-51
2021/09/12 01:52:13;;;;;;;16.13;10.48;;;;;;;13.69;100.00;96324.34;1027846;28;20081;-50
2021/09/12 01:52:43;;;;;;;13.02;10.55;;;;;;;13.70;100.00;96328.66;1027963;28;20019;-49
2021/09/12 01:53:14;;;;;;;14.25;10.30;;;;;;;13.69;100.00;96338.34;1029719;28;20018;-51
2021/09/12 01:53:45;;;;;;;11.82;9.85;;;;;;;13.71;100.00;96327.69;1036505;28;20555;-50
2021/09/12 01:54:16;;;;;;;13.93;10.30;;;;;;;13.73;100.00;96329.25;1040182;28;20048;-51
2021/09/12 01:54:46;;;;;;;15.32;10.07;;;;;;;13.73;100.00;96326.63;1035746;28;20076;-51
2021/09/12 01:55:17;;;;;;;11.70;10.50;;;;;;;13.73;100.00;96331.88;1023967;28;20106;-50
2021/09/12 01:55:47;;;;;;;11.23;9.63;;;;;;;13.74;100.00;96328.31;1023690;29;20127;-51
2021/09/12 01:56:18;;;;;;;11.15;9.90;;;;;;;13.74;100.00;96325.66;1023869;29;20019;-51
2021/09/12 01:56:49;;;;;;;11.77;10.20;;;;;;;13.76;100.00;96331.66;1023785;29;20464;-50
2021/09/12 01:57:20;;;;;;;12.48;10.43;;;;;;;13.75;100.00;96324.69;1027787;28;20488;-50
2021/09/12 01:57:50;;;;;;;13.15;10.45;;;;;;;13.74;100.00;96324.81;1031806;28;20026;-51
2021/09/12 01:58:21;;;;;;;13.20;10.27;;;;;;;13.77;100.00;96322.78;1028249;28;20015;-50
2021/09/12 01:58:51;;;;;;;12.25;9.82;;;;;;;13.82;100.00;96326.88;1031977;28;20042;-51
2021/09/12 01:59:22;;;;;;;11.70;10.43;;;;;;;13.77;100.00;96320.16;1031842;28;20045;-51
2021/09/12 01:59:52;;;;;;;13.00;10.27;;;;;;;13.73;100.00;96321.34;1035819;28;20018;-51
2021/09/12 02:00:23;;;;;;;15.52;10.60;;;;;;;13.72;100.00;96321.47;1027822;28;20086;-50
2021/09/12 02:00:54;;;;;;;14.73;10.55;;;;;;;13.72;100.00;96319.69;1031761;28;20086;-50
2021/09/12 02:01:24;;;;;;;14.05;10.93;;;;;;;13.74;100.00;96323.03;1031859;28;20554;-51
2021/09/12 02:01:55;;;;;;;13.13;10.73;;;;;;;13.70;100.00;96318.09;1023736;29;20023;-49
2021/09/12 02:02:26;;;;;;;13.65;10.60;;;;;;;13.72;100.00;96316.19;1023839;28;20497;-50
2021/09/12 02:02:58;;;;;;;12.35;10.50;;;;;;;13.71;100.00;96322.44;1023633;29;20067;-50
2021/09/12 02:03:29;;;;;;;13.63;10.98;;;;;;;13.72;100.00;96316.19;1027830;28;20029;-48
2021/09/12 02:04:00;;;;;;;13.07;10.15;;;;;;;13.74;100.00;96320.41;1031720;28;20033;-51
2021/09/12 02:04:30;;;;;;;14.38;10.70;;;;;;;13.74;100.00;96325.66;1031771;28;20504;-51
2021/09/12 02:05:01;;;;;;;12.82;10.02;;;;;;;13.74;100.00;96317.78;1027861;28;20101;-50
2021/09/12 02:05:32;;;;;;;15.45;10.18;;;;;;;13.77;100.00;96319.31;1023775;29;20393;-51
2021/09/12 02:06:02;;;;;;;12.00;10.38;;;;;;;13.76;100.00;96321.13;1019740;29;20020;-52
2021/09/12 02:06:33;;;;;;;12.27;10.10;;;;;;;13.71;100.00;96319.81;1027803;28;20023;-49
2021/09/12 02:07:04;;;;;;;14.98;9.55;;;;;;;13.75;100.00;96321.25;1027733;28;20497;-50
2021/09/12 02:07:34;;;;;;;12.48;10.02;;;;;;;13.73;100.00;96323.16;1027783;28;20393;-49
2021/09/12 02:08:05;;;;;;;12.10;10.45;;;;;;;13.73;100.00;96316.09;1019785;29;20121;-50
2021/09/12 02:08:35;;;;;;;13.85;9.95;;;;;;;13.72;100.00;96317.06;1023786;29;20027;-51
2021/09/12 02:09:06;;;;;;;15.30;9.68;;;;;;;13.72;100.00;96314.44;1023769;28;20031;-49
2021/09/12 02:09:37;;;;;;;11.35;9.48;;;;;;;13.74;100.00;96317.78;1028094;28;20023;-51
2021/09/12 02:10:08;;;;;;;11.70;9.48;;;;;;;13.75;100.00;96319.44;1027731;28;20051;-50
2021/09/12 02:10:38;;;;;;;12.50;10.50;;;;;;;13.73;100.00;96321.34;1020072;28;20046;-51
2021/09/12 02:11:10;;;;;;;10.50;9.18;;;;;;;13.73;100.00;96316.09;1023716;29;20029;-51
2021/09/12 02:11:40;;;;;;;11.18;9.50;;;;;;;13.72;100.00;96314.44;1023797;29;20023;-52
2021/09/12 02:12:11;;;;;;;12.50;9.63;;;;;;;13.74;100.00;96316.91;1023735;29;20023;-51
2021/09/12 02:12:42;;;;;;;15.45;9.02;;;;;;;13.68;100.00;96312.97;1019619;29;20031;-51
2021/09/12 02:13:12;;;;;;;13.65;10.02;;;;;;;13.70;100.00;96313.72;1023572;29;20031;-51
2021/09/12 02:13:43;;;;;;;14.27;10.48;;;;;;;13.73;100.00;96321.34;1031790;28;20026;-51
2021/09/12 02:14:13;;;;;;;13.13;9.90;;;;;;;13.72;100.00;96310.94;1027722;28;20122;-51
2021/09/12 02:14:44;;;;;;;10.93;9.65;;;;;;;13.72;100.00;96317.06;1019579;28;20510;-50
2021/09/12 02:15:14;;;;;;;12.50;10.50;;;;;;;13.67;100.00;96313.94;1023745;28;20111;-48
2021/09/12 02:15:45;;;;;;;10.90;9.65;;;;;;;13.67;100.00;96315.72;1023871;29;20018;-51
2021/09/12 02:16:17;;;;;;;12.95;9.23;;;;;;;13.67;100.00;96318.38;1024262;28;20027;-51
2021/09/12 02:16:48;;;;;;;15.95;9.82;;;;;;;13.70;100.00;96316.34;1031949;28;20019;-51
2021/09/12 02:17:19;;;;;;;10.90;8.80;;;;;;;13.68;100.00;96315.59;1027763;28;20402;-50
2021/09/12 02:17:49;;;;;;;11.23;9.45;;;;;;;13.68;100.00;96320.03;1027756;28;20035;-51
2021/09/12 02:18:20;;;;;;;12.43;9.95;;;;;;;13.68;100.00;96317.38;1027895;28;20051;-50
2021/09/12 02:18:51;;;;;;;11.75;9.48;;;;;;;13.68;100.00;96320.84;1027873;28;20027;-50
2021/09/12 02:19:22;;;;;;;12.02;9.45;;;;;;;13.68;100.00;96320.03;1028082;28;20113;-51
2021/09/12 02:19:52;;;;;;;10.75;9.00;;;;;;;13.68;100.00;96317.38;1035891;28;20500;-51
2021/09/12 02:20:23;;;;;;;11.25;9.68;;;;;;;13.74;100.00;96314.28;1027724;28;20425;-50
2021/09/12 02:20:54;;;;;;;11.85;9.07;;;;;;;13.74;100.00;96315.13;1027583;28;20027;-51